Terminal Aerodrome Forecast
Issued by NWS

Home | Current Version | Previous Version | Text Only | Print | Product List | Glossary On
Versions: 1 2 3 4 5 6 7 8 9 10 11 12
000
FTUS46 KSEW 030521
TAFOLM
TAF
KOLM 030521Z 0306/0406 VRB03KT P6SM BKN160
      TEMPO 0313/0316 BKN006 BKN160
     FM031800 21005KT P6SM SCT200
     FM032100 25009KT P6SM SCT200=

USA.gov is the U.S. government's official web portal to all federal, state and local government web resources and services.